sensor_id;sensor_type;location;lat;lon;timestamp;temperature;humidity
15452;DHT22;7827;53.594;9.938;2022-12-31T00:01:12;10.80;99.90
15452;DHT22;7827;53.594;9.938;2022-12-31T00:03:44;10.80;99.90
15452;DHT22;7827;53.594;9.938;2022-12-31T00:06:16;10.90;99.90
15452;DHT22;7827;53.594;9.938;2022-12-31T00:08:47;10.90;99.90
15452;DHT22;7827;53.594;9.938;2022-12-31T00:11:16;10.90;99.90
15452;DHT22;7827;53.594;9.938;2022-12-31T00:13:47;10.90;99.90
15452;DHT22;7827;53.594;9.938;2022-12-31T00:16:17;11.10;99.90
15452;DHT22;7827;53.594;9.938;2022-12-31T00:18:50;11.10;99.90
15452;DHT22;7827;53.594;9.938;2022-12-31T00:21:21;11.20;99.90
15452;DHT22;7827;53.594;9.938;2022-12-31T00:23:49;11.20;99.90
15452;DHT22;7827;53.594;9.938;2022-12-31T00:26:19;11.20;99.90
15452;DHT22;7827;53.594;9.938;2022-12-31T00:28:51;11.20;99.90
15452;DHT22;7827;53.594;9.938;2022-12-31T00:31:23;11.30;99.90
15452;DHT22;7827;53.594;9.938;2022-12-31T00:33:54;11.20;99.90
15452;DHT22;7827;53.594;9.938;2022-12-31T00:36:24;11.30;99.90
15452;DHT22;7827;53.594;9.938;2022-12-31T00:38:55;11.30;99.90
15452;DHT22;7827;53.594;9.938;2022-12-31T00:41:25;11.40;99.90
15452;DHT22;7827;53.594;9.938;2022-12-31T00:43:54;11.40;99.90
15452;DHT22;7827;53.594;9.938;2022-12-31T00:46:23;11.40;99.90
15452;DHT22;7827;53.594;9.938;2022-12-31T00:48:53;11.40;99.90
15452;DHT22;7827;53.594;9.938;2022-12-31T00:51:23;11.40;99.90
15452;DHT22;7827;53.594;9.938;2022-12-31T00:53:53;11.40;99.90
15452;DHT22;7827;53.594;9.938;2022-12-31T00:56:23;11.50;99.90
15452;DHT22;7827;53.594;9.938;2022-12-31T00:58:53;11.50;99.90
15452;DHT22;7827;53.594;9.938;2022-12-31T01:01:23;11.50;99.90
15452;DHT22;7827;53.594;9.938;2022-12-31T01:04:00;11.60;99.90
15452;DHT22;7827;53.594;9.938;2022-12-31T01:06:31;11.60;99.90
15452;DHT22;7827;53.594;9.938;2022-12-31T01:08:59;11.60;99.90
15452;DHT22;7827;53.594;9.938;2022-12-31T01:11:28;11.70;99.90
15452;DHT22;7827;53.594;9.938;2022-12-31T01:13:57;11.70;99.90
15452;DHT22;7827;53.594;9.938;2022-12-31T01:16:29;11.70;99.90
15452;DHT22;7827;53.594;9.938;2022-12-31T01:19:01;11.70;99.90
15452;DHT22;7827;53.594;9.938;2022-12-31T01:21:31;11.70;99.90
15452;DHT22;7827;53.594;9.938;2022-12-31T01:24:00;11.70;99.90
15452;DHT22;7827;53.594;9.938;2022-12-31T01:26:30;11.80;99.90
15452;DHT22;7827;53.594;9.938;2022-12-31T01:28:58;11.80;99.90
15452;DHT22;7827;53.594;9.938;2022-12-31T01:31:27;11.80;99.90
15452;DHT22;7827;53.594;9.938;2022-12-31T01:33:56;11.90;99.90
15452;DHT22;7827;53.594;9.938;2022-12-31T01:36:29;11.80;99.90
15452;DHT22;7827;53.594;9.938;2022-12-31T01:39:00;11.80;99.90
15452;DHT22;7827;53.594;9.938;2022-12-31T01:41:33;11.70;99.90
15452;DHT22;7827;53.594;9.938;2022-12-31T01:47:31;11.80;99.90
15452;DHT22;7827;53.594;9.938;2022-12-31T01:50:08;11.80;99.90
15452;DHT22;7827;53.594;9.938;2022-12-31T01:52:45;11.80;99.90
15452;DHT22;7827;53.594;9.938;2022-12-31T01:55:18;11.80;99.90
15452;DHT22;7827;53.594;9.938;2022-12-31T01:57:51;11.80;99.90
15452;DHT22;7827;53.594;9.938;2022-12-31T02:00:22;11.80;99.90
15452;DHT22;7827;53.594;9.938;2022-12-31T02:02:51;11.70;99.90
15452;DHT22;7827;53.594;9.938;2022-12-31T02:05:24;11.80;99.90
15452;DHT22;7827;53.594;9.938;2022-12-31T02:07:58;11.70;99.90
15452;DHT22;7827;53.594;9.938;2022-12-31T02:10:27;11.80;99.90
15452;DHT22;7827;53.594;9.938;2022-12-31T02:12:55;11.80;99.90
15452;DHT22;7827;53.594;9.938;2022-12-31T02:15:32;11.80;99.90
15452;DHT22;7827;53.594;9.938;2022-12-31T02:18:11;11.80;99.90
15452;DHT22;7827;53.594;9.938;2022-12-31T02:21:18;11.80;99.90
15452;DHT22;7827;53.594;9.938;2022-12-31T02:27:40;11.90;99.90
15452;DHT22;7827;53.594;9.938;2022-12-31T02:30:21;12.00;99.90
15452;DHT22;7827;53.594;9.938;2022-12-31T02:33:07;11.90;99.90
15452;DHT22;7827;53.594;9.938;2022-12-31T02:35:46;12.00;99.90
15452;DHT22;7827;53.594;9.938;2022-12-31T02:38:20;11.90;99.90
15452;DHT22;7827;53.594;9.938;2022-12-31T02:40:52;11.90;99.90
15452;DHT22;7827;53.594;9.938;2022-12-31T02:43:21;11.90;99.90
15452;DHT22;7827;53.594;9.938;2022-12-31T02:45:58;11.90;99.90
15452;DHT22;7827;53.594;9.938;2022-12-31T02:48:39;12.00;99.90
15452;DHT22;7827;53.594;9.938;2022-12-31T02:51:25;11.90;99.90
15452;DHT22;7827;53.594;9.938;2022-12-31T02:54:16;11.90;99.90
15452;DHT22;7827;53.594;9.938;2022-12-31T02:57:01;11.90;99.90
15452;DHT22;7827;53.594;9.938;2022-12-31T02:59:40;11.90;99.90
15452;DHT22;7827;53.594;9.938;2022-12-31T03:02:38;11.90;99.90
15452;DHT22;7827;53.594;9.938;2022-12-31T03:05:11;11.90;99.90
15452;DHT22;7827;53.594;9.938;2022-12-31T03:07:43;11.80;99.90
15452;DHT22;7827;53.594;9.938;2022-12-31T03:10:12;11.90;99.90
15452;DHT22;7827;53.594;9.938;2022-12-31T03:12:42;11.80;99.90
15452;DHT22;7827;53.594;9.938;2022-12-31T03:15:16;11.80;99.90
15452;DHT22;7827;53.594;9.938;2022-12-31T03:18:00;11.80;99.90
15452;DHT22;7827;53.594;9.938;2022-12-31T03:20:31;11.80;99.90
15452;DHT22;7827;53.594;9.938;2022-12-31T03:23:21;11.70;99.90
15452;DHT22;7827;53.594;9.938;2022-12-31T03:25:52;11.70;99.90
15452;DHT22;7827;53.594;9.938;2022-12-31T03:28:23;11.70;99.90
15452;DHT22;7827;53.594;9.938;2022-12-31T03:30:55;11.70;99.90
15452;DHT22;7827;53.594;9.938;2022-12-31T03:33:29;11.70;99.90
15452;DHT22;7827;53.594;9.938;2022-12-31T03:36:02;11.70;99.90
15452;DHT22;7827;53.594;9.938;2022-12-31T03:38:32;11.70;99.90
15452;DHT22;7827;53.594;9.938;2022-12-31T03:41:00;11.70;99.90
15452;DHT22;7827;53.594;9.938;2022-12-31T03:43:28;11.60;99.90
15452;DHT22;7827;53.594;9.938;2022-12-31T03:45:57;11.60;99.90
15452;DHT22;7827;53.594;9.938;2022-12-31T03:48:28;11.60;99.90
15452;DHT22;7827;53.594;9.938;2022-12-31T03:50:57;11.60;99.90
15452;DHT22;7827;53.594;9.938;2022-12-31T03:53:25;11.60;99.90
15452;DHT22;7827;53.594;9.938;2022-12-31T03:55:53;11.60;99.90
15452;DHT22;7827;53.594;9.938;2022-12-31T03:58:22;11.50;99.90
15452;DHT22;7827;53.594;9.938;2022-12-31T04:00:50;11.60;99.90
15452;DHT22;7827;53.594;9.938;2022-12-31T04:03:18;11.50;99.90
15452;DHT22;7827;53.594;9.938;2022-12-31T04:05:52;11.60;99.90
15452;DHT22;7827;53.594;9.938;2022-12-31T04:08:22;11.60;99.90
15452;DHT22;7827;53.594;9.938;2022-12-31T04:10:50;11.50;99.90
15452;DHT22;7827;53.594;9.938;2022-12-31T04:13:19;11.50;99.90
15452;DHT22;7827;53.594;9.938;2022-12-31T04:15:48;11.50;99.90
15452;DHT22;7827;53.594;9.938;2022-12-31T04:18:17;11.50;99.90
15452;DHT22;7827;53.594;9.938;2022-12-31T04:20:45;11.50;99.90
15452;DHT22;7827;53.594;9.938;2022-12-31T04:23:15;11.50;99.90
15452;DHT22;7827;53.594;9.938;2022-12-31T04:25:44;11.50;99.90
15452;DHT22;7827;53.594;9.938;2022-12-31T04:28:12;11.60;99.90
15452;DHT22;7827;53.594;9.938;2022-12-31T04:30:40;11.60;99.90
15452;DHT22;7827;53.594;9.938;2022-12-31T04:33:08;11.60;99.90
15452;DHT22;7827;53.594;9.938;2022-12-31T04:35:37;11.60;99.90
15452;DHT22;7827;53.594;9.938;2022-12-31T04:38:05;11.60;99.90
15452;DHT22;7827;53.594;9.938;2022-12-31T04:40:35;11.70;99.90
15452;DHT22;7827;53.594;9.938;2022-12-31T04:43:23;11.60;99.90
15452;DHT22;7827;53.594;9.938;2022-12-31T04:45:51;11.60;99.90
15452;DHT22;7827;53.594;9.938;2022-12-31T04:48:20;11.70;99.90
15452;DHT22;7827;53.594;9.938;2022-12-31T04:50:48;11.60;99.90
15452;DHT22;7827;53.594;9.938;2022-12-31T04:53:17;11.60;99.90
15452;DHT22;7827;53.594;9.938;2022-12-31T04:55:46;11.70;99.90
15452;DHT22;7827;53.594;9.938;2022-12-31T04:58:15;11.70;99.90
15452;DHT22;7827;53.594;9.938;2022-12-31T05:00:44;11.60;99.90
15452;DHT22;7827;53.594;9.938;2022-12-31T05:03:16;11.70;99.90
15452;DHT22;7827;53.594;9.938;2022-12-31T05:05:45;11.70;99.90
15452;DHT22;7827;53.594;9.938;2022-12-31T05:08:16;11.70;99.90
15452;DHT22;7827;53.594;9.938;2022-12-31T05:10:48;11.70;99.90
15452;DHT22;7827;53.594;9.938;2022-12-31T05:13:16;11.70;99.90
15452;DHT22;7827;53.594;9.938;2022-12-31T05:15:45;11.70;99.90
15452;DHT22;7827;53.594;9.938;2022-12-31T05:18:13;11.70;99.90
15452;DHT22;7827;53.594;9.938;2022-12-31T05:20:42;11.70;99.90
15452;DHT22;7827;53.594;9.938;2022-12-31T05:23:10;11.70;99.90
15452;DHT22;7827;53.594;9.938;2022-12-31T05:25:40;11.60;99.90
15452;DHT22;7827;53.594;9.938;2022-12-31T05:28:11;11.60;99.90
15452;DHT22;7827;53.594;9.938;2022-12-31T05:30:41;11.60;99.90
15452;DHT22;7827;53.594;9.938;2022-12-31T05:33:10;11.60;99.90
15452;DHT22;7827;53.594;9.938;2022-12-31T05:35:39;11.60;99.90
15452;DHT22;7827;53.594;9.938;2022-12-31T05:38:07;11.50;99.90
15452;DHT22;7827;53.594;9.938;2022-12-31T05:40:35;11.50;99.90
15452;DHT22;7827;53.594;9.938;2022-12-31T05:43:03;11.50;99.90
15452;DHT22;7827;53.594;9.938;2022-12-31T05:45:33;11.50;99.90
15452;DHT22;7827;53.594;9.938;2022-12-31T05:48:01;11.40;99.90
15452;DHT22;7827;53.594;9.938;2022-12-31T05:50:30;11.40;99.90
15452;DHT22;7827;53.594;9.938;2022-12-31T05:53:03;11.40;99.90
15452;DHT22;7827;53.594;9.938;2022-12-31T05:55:31;11.50;99.90
15452;DHT22;7827;53.594;9.938;2022-12-31T05:58:00;11.50;99.90
15452;DHT22;7827;53.594;9.938;2022-12-31T06:00:28;11.50;99.90
15452;DHT22;7827;53.594;9.938;2022-12-31T06:02:57;11.40;99.90
15452;DHT22;7827;53.594;9.938;2022-12-31T06:05:26;11.40;99.90
15452;DHT22;7827;53.594;9.938;2022-12-31T06:07:54;11.50;99.90
15452;DHT22;7827;53.594;9.938;2022-12-31T06:10:22;11.40;99.90
15452;DHT22;7827;53.594;9.938;2022-12-31T06:12:51;11.40;99.90
15452;DHT22;7827;53.594;9.938;2022-12-31T06:15:19;11.40;99.90
15452;DHT22;7827;53.594;9.938;2022-12-31T06:17:47;11.40;99.90
15452;DHT22;7827;53.594;9.938;2022-12-31T06:20:17;11.40;99.90
15452;DHT22;7827;53.594;9.938;2022-12-31T06:22:45;11.40;99.90
15452;DHT22;7827;53.594;9.938;2022-12-31T06:25:13;11.40;99.90
15452;DHT22;7827;53.594;9.938;2022-12-31T06:27:42;11.40;99.90
15452;DHT22;7827;53.594;9.938;2022-12-31T06:30:11;11.40;99.90
15452;DHT22;7827;53.594;9.938;2022-12-31T06:32:40;11.40;99.90
15452;DHT22;7827;53.594;9.938;2022-12-31T06:35:08;11.40;99.90
15452;DHT22;7827;53.594;9.938;2022-12-31T06:37:38;11.30;99.90
15452;DHT22;7827;53.594;9.938;2022-12-31T06:40:07;11.30;99.90
15452;DHT22;7827;53.594;9.938;2022-12-31T06:42:37;11.20;99.90
15452;DHT22;7827;53.594;9.938;2022-12-31T06:45:06;11.20;99.90
15452;DHT22;7827;53.594;9.938;2022-12-31T06:47:35;11.20;99.90
15452;DHT22;7827;53.594;9.938;2022-12-31T06:50:04;11.20;99.90
15452;DHT22;7827;53.594;9.938;2022-12-31T06:52:33;11.20;99.90
15452;DHT22;7827;53.594;9.938;2022-12-31T06:55:04;11.20;99.90
15452;DHT22;7827;53.594;9.938;2022-12-31T06:57:34;11.10;99.90
15452;DHT22;7827;53.594;9.938;2022-12-31T07:00:04;11.10;99.90
15452;DHT22;7827;53.594;9.938;2022-12-31T07:03:05;11.10;99.90
15452;DHT22;7827;53.594;9.938;2022-12-31T07:05:48;11.10;99.90
15452;DHT22;7827;53.594;9.938;2022-12-31T07:08:32;11.10;99.90
15452;DHT22;7827;53.594;9.938;2022-12-31T07:11:15;11.00;99.90
15452;DHT22;7827;53.594;9.938;2022-12-31T07:14:02;11.00;99.90
15452;DHT22;7827;53.594;9.938;2022-12-31T07:16:44;11.00;99.90
15452;DHT22;7827;53.594;9.938;2022-12-31T07:19:26;11.00;99.90
15452;DHT22;7827;53.594;9.938;2022-12-31T07:22:03;11.00;99.90
15452;DHT22;7827;53.594;9.938;2022-12-31T07:24:32;11.00;99.90
15452;DHT22;7827;53.594;9.938;2022-12-31T07:27:17;11.00;99.90
15452;DHT22;7827;53.594;9.938;2022-12-31T07:30:02;11.10;99.90
15452;DHT22;7827;53.594;9.938;2022-12-31T07:32:47;11.00;99.90
15452;DHT22;7827;53.594;9.938;2022-12-31T07:35:35;11.00;99.90
15452;DHT22;7827;53.594;9.938;2022-12-31T07:38:22;11.00;99.90
15452;DHT22;7827;53.594;9.938;2022-12-31T07:41:05;10.90;99.90
15452;DHT22;7827;53.594;9.938;2022-12-31T07:43:48;11.00;99.90
15452;DHT22;7827;53.594;9.938;2022-12-31T07:46:30;11.00;99.90
15452;DHT22;7827;53.594;9.938;2022-12-31T07:49:03;11.00;99.90
15452;DHT22;7827;53.594;9.938;2022-12-31T07:51:33;11.00;99.90
15452;DHT22;7827;53.594;9.938;2022-12-31T07:54:01;10.90;99.90
15452;DHT22;7827;53.594;9.938;2022-12-31T07:56:37;10.90;99.90
15452;DHT22;7827;53.594;9.938;2022-12-31T07:59:16;10.90;99.90
15452;DHT22;7827;53.594;9.938;2022-12-31T08:01:59;10.90;99.90
15452;DHT22;7827;53.594;9.938;2022-12-31T08:04:39;10.90;99.90
15452;DHT22;7827;53.594;9.938;2022-12-31T08:07:19;11.00;99.90
15452;DHT22;7827;53.594;9.938;2022-12-31T08:10:02;10.90;99.90
15452;DHT22;7827;53.594;9.938;2022-12-31T08:12:44;10.90;99.90
15452;DHT22;7827;53.594;9.938;2022-12-31T08:15:18;11.00;99.90
15452;DHT22;7827;53.594;9.938;2022-12-31T08:17:56;11.00;99.90
15452;DHT22;7827;53.594;9.938;2022-12-31T08:20:25;11.00;99.90
15452;DHT22;7827;53.594;9.938;2022-12-31T08:23:15;11.00;99.90
15452;DHT22;7827;53.594;9.938;2022-12-31T08:26:02;11.00;99.90
15452;DHT22;7827;53.594;9.938;2022-12-31T08:28:58;11.00;99.90
15452;DHT22;7827;53.594;9.938;2022-12-31T08:31:43;11.00;99.90
15452;DHT22;7827;53.594;9.938;2022-12-31T08:34:22;11.00;99.90
15452;DHT22;7827;53.594;9.938;2022-12-31T08:37:02;11.00;99.90
15452;DHT22;7827;53.594;9.938;2022-12-31T08:39:46;11.00;99.90
15452;DHT22;7827;53.594;9.938;2022-12-31T08:42:27;11.00;99.90
15452;DHT22;7827;53.594;9.938;2022-12-31T08:45:06;11.10;99.90
15452;DHT22;7827;53.594;9.938;2022-12-31T08:47:47;11.10;99.90
15452;DHT22;7827;53.594;9.938;2022-12-31T08:50:27;11.10;99.90
15452;DHT22;7827;53.594;9.938;2022-12-31T08:52:57;11.10;99.90
15452;DHT22;7827;53.594;9.938;2022-12-31T08:55:26;11.20;99.90
15452;DHT22;7827;53.594;9.938;2022-12-31T08:58:07;11.20;99.90
15452;DHT22;7827;53.594;9.938;2022-12-31T09:00:45;11.30;99.90
15452;DHT22;7827;53.594;9.938;2022-12-31T09:03:24;11.20;99.90
15452;DHT22;7827;53.594;9.938;2022-12-31T09:06:08;11.20;99.90
15452;DHT22;7827;53.594;9.938;2022-12-31T09:08:48;11.20;99.90
15452;DHT22;7827;53.594;9.938;2022-12-31T09:11:27;11.30;99.90
15452;DHT22;7827;53.594;9.938;2022-12-31T09:14:16;11.30;99.90
15452;DHT22;7827;53.594;9.938;2022-12-31T09:17:01;11.40;99.90
15452;DHT22;7827;53.594;9.938;2022-12-31T09:19:35;11.40;99.90
15452;DHT22;7827;53.594;9.938;2022-12-31T09:22:04;11.40;99.90
15452;DHT22;7827;53.594;9.938;2022-12-31T09:24:33;11.40;99.90
15452;DHT22;7827;53.594;9.938;2022-12-31T09:27:08;11.40;99.90
15452;DHT22;7827;53.594;9.938;2022-12-31T09:29:50;11.50;99.90
15452;DHT22;7827;53.594;9.938;2022-12-31T09:32:31;11.50;99.90
15452;DHT22;7827;53.594;9.938;2022-12-31T09:35:18;11.60;99.90
15452;DHT22;7827;53.594;9.938;2022-12-31T09:38:02;11.60;99.90
15452;DHT22;7827;53.594;9.938;2022-12-31T09:41:03;11.60;99.90
15452;DHT22;7827;53.594;9.938;2022-12-31T09:47:49;11.60;99.90
15452;DHT22;7827;53.594;9.938;2022-12-31T09:50:55;11.60;99.90
15452;DHT22;7827;53.594;9.938;2022-12-31T09:53:51;11.60;99.90
15452;DHT22;7827;53.594;9.938;2022-12-31T09:56:41;11.60;99.90
15452;DHT22;7827;53.594;9.938;2022-12-31T09:59:19;11.60;99.90
15452;DHT22;7827;53.594;9.938;2022-12-31T10:01:58;11.60;99.90
15452;DHT22;7827;53.594;9.938;2022-12-31T10:04:48;11.60;99.90
15452;DHT22;7827;53.594;9.938;2022-12-31T10:07:48;11.60;99.90
15452;DHT22;7827;53.594;9.938;2022-12-31T10:10:23;11.60;99.90
15452;DHT22;7827;53.594;9.938;2022-12-31T10:13:18;11.50;99.90
15452;DHT22;7827;53.594;9.938;2022-12-31T10:16:15;11.60;99.90
15452;DHT22;7827;53.594;9.938;2022-12-31T10:19:35;11.60;99.90
15452;DHT22;7827;53.594;9.938;2022-12-31T10:22:38;11.60;99.90
15452;DHT22;7827;53.594;9.938;2022-12-31T10:25:38;11.70;99.90
15452;DHT22;7827;53.594;9.938;2022-12-31T10:28:29;11.70;99.90
15452;DHT22;7827;53.594;9.938;2022-12-31T10:31:11;11.70;99.90
15452;DHT22;7827;53.594;9.938;2022-12-31T10:33:44;11.70;99.90
15452;DHT22;7827;53.594;9.938;2022-12-31T10:36:29;11.80;99.90
15452;DHT22;7827;53.594;9.938;2022-12-31T10:39:05;11.80;99.90
15452;DHT22;7827;53.594;9.938;2022-12-31T10:42:11;11.80;99.90
15452;DHT22;7827;53.594;9.938;2022-12-31T10:45:47;11.90;99.90
15452;DHT22;7827;53.594;9.938;2022-12-31T10:49:26;11.90;99.90
15452;DHT22;7827;53.594;9.938;2022-12-31T10:52:30;11.90;99.90
15452;DHT22;7827;53.594;9.938;2022-12-31T10:55:43;11.90;99.90
15452;DHT22;7827;53.594;9.938;2022-12-31T10:58:44;11.90;99.90
15452;DHT22;7827;53.594;9.938;2022-12-31T11:01:32;12.00;99.90
15452;DHT22;7827;53.594;9.938;2022-12-31T11:04:36;11.90;99.90
15452;DHT22;7827;53.594;9.938;2022-12-31T11:07:51;12.00;99.90
15452;DHT22;7827;53.594;9.938;2022-12-31T11:10:52;12.00;99.90
15452;DHT22;7827;53.594;9.938;2022-12-31T11:13:56;12.00;99.90
15452;DHT22;7827;53.594;9.938;2022-12-31T11:17:01;12.00;99.90
15452;DHT22;7827;53.594;9.938;2022-12-31T11:19:53;12.00;99.90
15452;DHT22;7827;53.594;9.938;2022-12-31T11:22:51;12.10;99.90
15452;DHT22;7827;53.594;9.938;2022-12-31T11:25:33;12.10;99.90
15452;DHT22;7827;53.594;9.938;2022-12-31T11:28:26;12.20;99.90
15452;DHT22;7827;53.594;9.938;2022-12-31T11:31:35;12.20;99.90
15452;DHT22;7827;53.594;9.938;2022-12-31T11:34:33;12.30;99.90
15452;DHT22;7827;53.594;9.938;2022-12-31T11:37:34;12.40;99.90
15452;DHT22;7827;53.594;9.938;2022-12-31T11:40:37;12.50;99.90
15452;DHT22;7827;53.594;9.938;2022-12-31T11:43:20;12.50;99.90
15452;DHT22;7827;53.594;9.938;2022-12-31T11:49:20;12.60;99.90
15452;DHT22;7827;53.594;9.938;2022-12-31T11:52:10;12.70;99.90
15452;DHT22;7827;53.594;9.938;2022-12-31T11:55:08;12.80;99.90
15452;DHT22;7827;53.594;9.938;2022-12-31T11:57:54;12.80;99.90
15452;DHT22;7827;53.594;9.938;2022-12-31T12:00:29;12.90;99.90
15452;DHT22;7827;53.594;9.938;2022-12-31T12:03:02;12.90;99.90
15452;DHT22;7827;53.594;9.938;2022-12-31T12:05:34;12.90;99.90
15452;DHT22;7827;53.594;9.938;2022-12-31T12:08:05;12.90;99.90
15452;DHT22;7827;53.594;9.938;2022-12-31T12:10:39;13.00;99.90
15452;DHT22;7827;53.594;9.938;2022-12-31T12:13:13;13.10;99.90
15452;DHT22;7827;53.594;9.938;2022-12-31T12:15:49;13.10;99.90
15452;DHT22;7827;53.594;9.938;2022-12-31T12:18:26;13.20;99.90
15452;DHT22;7827;53.594;9.938;2022-12-31T12:21:04;13.20;99.90
15452;DHT22;7827;53.594;9.938;2022-12-31T12:23:36;13.20;99.90
15452;DHT22;7827;53.594;9.938;2022-12-31T12:26:06;13.20;99.90
15452;DHT22;7827;53.594;9.938;2022-12-31T12:28:52;13.30;99.90
15452;DHT22;7827;53.594;9.938;2022-12-31T12:31:22;13.40;99.90
15452;DHT22;7827;53.594;9.938;2022-12-31T12:33:52;13.40;99.90
15452;DHT22;7827;53.594;9.938;2022-12-31T12:36:22;13.50;99.90
15452;DHT22;7827;53.594;9.938;2022-12-31T12:38:59;13.40;99.90
15452;DHT22;7827;53.594;9.938;2022-12-31T12:41:28;13.50;99.90
15452;DHT22;7827;53.594;9.938;2022-12-31T12:44:04;13.50;99.90
15452;DHT22;7827;53.594;9.938;2022-12-31T12:46:37;13.60;99.90
15452;DHT22;7827;53.594;9.938;2022-12-31T12:49:20;13.50;99.90
15452;DHT22;7827;53.594;9.938;2022-12-31T12:52:08;13.60;99.90
15452;DHT22;7827;53.594;9.938;2022-12-31T12:55:04;13.60;99.90
15452;DHT22;7827;53.594;9.938;2022-12-31T12:57:47;13.60;99.90
15452;DHT22;7827;53.594;9.938;2022-12-31T13:00:21;13.60;99.90
15452;DHT22;7827;53.594;9.938;2022-12-31T13:03:07;13.70;99.90
15452;DHT22;7827;53.594;9.938;2022-12-31T13:06:02;13.60;99.90
15452;DHT22;7827;53.594;9.938;2022-12-31T13:08:53;13.70;99.90
15452;DHT22;7827;53.594;9.938;2022-12-31T13:11:37;13.70;99.90
15452;DHT22;7827;53.594;9.938;2022-12-31T13:14:19;13.70;99.90
15452;DHT22;7827;53.594;9.938;2022-12-31T13:16:58;13.70;99.90
15452;DHT22;7827;53.594;9.938;2022-12-31T13:19:56;13.70;99.90
15452;DHT22;7827;53.594;9.938;2022-12-31T13:22:35;13.70;99.90
15452;DHT22;7827;53.594;9.938;2022-12-31T13:25:21;13.70;99.90
15452;DHT22;7827;53.594;9.938;2022-12-31T13:28:01;13.80;99.90
15452;DHT22;7827;53.594;9.938;2022-12-31T13:30:36;13.80;99.90
15452;DHT22;7827;53.594;9.938;2022-12-31T13:33:14;13.80;99.90
15452;DHT22;7827;53.594;9.938;2022-12-31T13:35:46;13.80;99.90
15452;DHT22;7827;53.594;9.938;2022-12-31T13:38:18;13.80;99.90
15452;DHT22;7827;53.594;9.938;2022-12-31T13:40:57;13.80;99.90
15452;DHT22;7827;53.594;9.938;2022-12-31T13:43:35;13.90;99.90
15452;DHT22;7827;53.594;9.938;2022-12-31T13:46:16;13.90;99.90
15452;DHT22;7827;53.594;9.938;2022-12-31T13:48:56;13.90;99.90
15452;DHT22;7827;53.594;9.938;2022-12-31T13:51:36;13.80;99.90
15452;DHT22;7827;53.594;9.938;2022-12-31T13:54:19;13.80;99.90
15452;DHT22;7827;53.594;9.938;2022-12-31T13:56:59;13.80;99.90
15452;DHT22;7827;53.594;9.938;2022-12-31T13:59:34;13.80;99.90
15452;DHT22;7827;53.594;9.938;2022-12-31T14:02:15;13.90;99.90
15452;DHT22;7827;53.594;9.938;2022-12-31T14:05:02;13.80;99.90
15452;DHT22;7827;53.594;9.938;2022-12-31T14:07:39;13.80;99.90
15452;DHT22;7827;53.594;9.938;2022-12-31T14:10:14;13.80;99.90
15452;DHT22;7827;53.594;9.938;2022-12-31T14:12:49;13.80;99.90
15452;DHT22;7827;53.594;9.938;2022-12-31T14:15:27;13.80;99.90
15452;DHT22;7827;53.594;9.938;2022-12-31T14:18:05;13.70;99.90
15452;DHT22;7827;53.594;9.938;2022-12-31T14:20:46;13.80;99.90
15452;DHT22;7827;53.594;9.938;2022-12-31T14:23:24;13.70;99.90
15452;DHT22;7827;53.594;9.938;2022-12-31T14:26:01;13.70;99.90
15452;DHT22;7827;53.594;9.938;2022-12-31T14:28:40;13.70;99.90
15452;DHT22;7827;53.594;9.938;2022-12-31T14:31:18;13.70;99.90
15452;DHT22;7827;53.594;9.938;2022-12-31T14:34:02;13.80;99.90
15452;DHT22;7827;53.594;9.938;2022-12-31T14:36:45;13.80;99.90
15452;DHT22;7827;53.594;9.938;2022-12-31T14:39:33;13.80;99.90
15452;DHT22;7827;53.594;9.938;2022-12-31T14:42:19;13.80;99.90
15452;DHT22;7827;53.594;9.938;2022-12-31T14:45:06;13.80;99.90
15452;DHT22;7827;53.594;9.938;2022-12-31T14:47:52;13.80;99.90
15452;DHT22;7827;53.594;9.938;2022-12-31T14:50:25;13.80;99.90
15452;DHT22;7827;53.594;9.938;2022-12-31T14:53:06;13.90;99.90
15452;DHT22;7827;53.594;9.938;2022-12-31T14:55:37;13.90;99.90
15452;DHT22;7827;53.594;9.938;2022-12-31T14:58:20;13.90;99.90
15452;DHT22;7827;53.594;9.938;2022-12-31T15:00:58;14.00;99.90
15452;DHT22;7827;53.594;9.938;2022-12-31T15:03:34;13.90;99.90
15452;DHT22;7827;53.594;9.938;2022-12-31T15:06:36;13.90;99.90
15452;DHT22;7827;53.594;9.938;2022-12-31T15:09:22;13.90;99.90
15452;DHT22;7827;53.594;9.938;2022-12-31T15:12:20;13.90;99.90
15452;DHT22;7827;53.594;9.938;2022-12-31T15:15:08;13.90;99.90
15452;DHT22;7827;53.594;9.938;2022-12-31T15:17:59;13.90;99.90
15452;DHT22;7827;53.594;9.938;2022-12-31T15:21:03;13.90;99.90
15452;DHT22;7827;53.594;9.938;2022-12-31T15:23:53;13.80;99.90
15452;DHT22;7827;53.594;9.938;2022-12-31T15:26:24;13.80;99.90
15452;DHT22;7827;53.594;9.938;2022-12-31T15:28:59;13.80;99.90
15452;DHT22;7827;53.594;9.938;2022-12-31T15:31:31;13.80;99.90
15452;DHT22;7827;53.594;9.938;2022-12-31T15:34:04;13.80;99.90
15452;DHT22;7827;53.594;9.938;2022-12-31T15:36:35;13.80;99.90
15452;DHT22;7827;53.594;9.938;2022-12-31T15:42:03;13.80;99.90
15452;DHT22;7827;53.594;9.938;2022-12-31T15:45:15;13.80;99.90
15452;DHT22;7827;53.594;9.938;2022-12-31T15:47:54;13.70;99.90
15452;DHT22;7827;53.594;9.938;2022-12-31T15:50:25;13.70;99.90
15452;DHT22;7827;53.594;9.938;2022-12-31T15:52:57;13.70;99.90
15452;DHT22;7827;53.594;9.938;2022-12-31T15:55:31;13.60;99.90
15452;DHT22;7827;53.594;9.938;2022-12-31T15:58:06;13.60;99.90
15452;DHT22;7827;53.594;9.938;2022-12-31T16:00:52;13.60;99.90
15452;DHT22;7827;53.594;9.938;2022-12-31T16:03:29;13.60;99.90
15452;DHT22;7827;53.594;9.938;2022-12-31T16:06:01;13.60;99.90
15452;DHT22;7827;53.594;9.938;2022-12-31T16:08:36;13.60;99.90
15452;DHT22;7827;53.594;9.938;2022-12-31T16:11:07;13.60;99.90
15452;DHT22;7827;53.594;9.938;2022-12-31T16:13:40;13.60;99.90
15452;DHT22;7827;53.594;9.938;2022-12-31T16:16:19;13.60;99.90
15452;DHT22;7827;53.594;9.938;2022-12-31T16:18:49;13.50;99.90
15452;DHT22;7827;53.594;9.938;2022-12-31T16:21:26;13.50;99.90
15452;DHT22;7827;53.594;9.938;2022-12-31T16:24:00;13.50;99.90
15452;DHT22;7827;53.594;9.938;2022-12-31T16:26:35;13.50;99.90
15452;DHT22;7827;53.594;9.938;2022-12-31T16:29:13;13.50;99.90
15452;DHT22;7827;53.594;9.938;2022-12-31T16:31:42;13.40;99.90
15452;DHT22;7827;53.594;9.938;2022-12-31T16:34:14;13.30;99.90
15452;DHT22;7827;53.594;9.938;2022-12-31T16:36:56;13.40;99.90
15452;DHT22;7827;53.594;9.938;2022-12-31T16:39:28;13.40;99.90
15452;DHT22;7827;53.594;9.938;2022-12-31T16:42:13;13.30;99.90
15452;DHT22;7827;53.594;9.938;2022-12-31T16:44:45;13.40;99.90
15452;DHT22;7827;53.594;9.938;2022-12-31T16:47:17;13.40;99.90
15452;DHT22;7827;53.594;9.938;2022-12-31T16:49:54;13.30;99.90
15452;DHT22;7827;53.594;9.938;2022-12-31T16:52:31;13.20;99.90
15452;DHT22;7827;53.594;9.938;2022-12-31T16:55:06;13.30;99.90
15452;DHT22;7827;53.594;9.938;2022-12-31T16:57:36;13.20;99.90
15452;DHT22;7827;53.594;9.938;2022-12-31T17:00:06;13.20;99.90
15452;DHT22;7827;53.594;9.938;2022-12-31T17:02:46;13.20;99.90
15452;DHT22;7827;53.594;9.938;2022-12-31T17:05:18;13.20;99.90
15452;DHT22;7827;53.594;9.938;2022-12-31T17:07:49;13.20;99.90
15452;DHT22;7827;53.594;9.938;2022-12-31T17:10:20;13.20;99.90